Flight Track Log - Related Links

Times and Time Zones

All times are in EST time to prevent confusion due to time zone crossing. See the OPT438 flight status page for this flight to view local times or setup timezone preferences in your user account.

Time Position Orientation Groundspeed Altitude Reporting Facility
EST Latitude Longitude Course Direction KTS MPH feet Rate Location/Type
Sun 01:48:15 PM 40.8167 -74.1333 180° South 205 236 1,500  Level New TRACON
Sun 01:49:15 PM 40.8000 -74.2167 255° West 225 259 3,800 2,200 Climbing New TRACON
Sun 01:50:15 PM 40.7333 -74.2500 201° Southwest 234 269 5,900 2,650 Climbing New TRACON
Sun 01:51:15 PM 40.6667 -74.2500 180° South 250 288 9,100 3,500 Climbing New TRACON
Sun 01:52:15 PM 40.6000 -74.2667 191° South 249 287 12,900 3,050 Climbing New TRACON
Sun 01:53:00 PM 40.3092 -74.1500 180° South  Level FlightAware
Sun 01:53:15 PM 40.5167 -74.2667 180° South 291 335 15,200  Level New TRACON
Sun 01:54:15 PM 40.4333 -74.2667 180° South 307 353 16,900 973 Climbing New TRACON
Sun 01:55:06 PM 40.3681 -74.2714 183° South 320 368 17,000 54 Climbing New Center
Sun 01:56:06 PM 40.2828 -74.2672 178° South 315 362 17,000  Level New Center
Sun 01:57:06 PM 40.1994 -74.2628 178° South 310 357 17,000 200 Level New Center
Sun 01:58:06 PM 40.1119 -74.2586 178° South 310 357 17,400 1,835 Climbing New Center
Sun 01:59:56 PM 39.9544 -74.3006 192° South 301 346 22,200 2,316 Climbing Washington Center
Sun 02:00:57 PM 39.8886 -74.3667 218° Southwest 296 341 24,000 893 Climbing Washington Center
Sun 02:01:57 PM 39.8203 -74.4300 215° Southwest 306 352 24,000 1,000 Level Washington Center
Sun 02:02:57 PM 39.7628 -74.5064 226° Southwest 306 352 26,000 1,983 Climbing Washington Center
Sun 02:03:58 PM 39.7111 -74.5719 224° Southwest 306 352 28,000 2,269 Climbing Washington Center
Sun 02:04:56 PM 39.6578 -74.6428 226° Southwest 286 329 30,500 1,881 Climbing Washington Center
Sun 02:05:56 PM 39.6081 -74.7108 227° Southwest 273 314 31,700 950 Climbing Washington Center
Sun 02:06:56 PM 39.5525 -74.7814 224° Southwest 278 320 32,400 639 Climbing Washington Center
Sun 02:07:58 PM 39.5008 -74.8628 231° Southwest 285 328 33,000 885 Climbing Washington Center
Sun 02:08:58 PM 39.4597 -74.9519 239° Southwest 290 334 34,200 1,068 Climbing Washington Center
Sun 02:09:56 PM 39.4058 -75.0303 228° Southwest 296 341 35,100 712 Climbing Washington Center
Sun 02:10:56 PM 39.3250 -75.0925 211° Southwest 310 357 35,600 492 Climbing Washington Center
Sun 02:11:58 PM 39.2397 -75.1386 203° Southwest 323 372 36,100 550 Climbing Washington Center
Sun 02:12:56 PM 39.1461 -75.1794 199° South 340 391 36,700 661 Climbing Washington Center
Sun 02:13:56 PM 39.0564 -75.2175 198° South 348 400 37,400 645 Climbing Washington Center
Sun 02:14:57 PM 38.9650 -75.2500 195° South 348 400 38,000 541 Climbing Washington Center
Sun 02:15:58 PM 38.8753 -75.2931 200° South 343 395 38,500 454 Climbing Washington Center
Sun 02:16:56 PM 38.7858 -75.3253 196° South 343 395 38,900 353 Climbing Washington Center
Sun 02:17:57 PM 38.6961 -75.3628 198° South 343 395 39,200 295 Climbing Washington Center
Sun 02:18:58 PM 38.6067 -75.4003 198° South 343 395 39,500 298 Climbing Washington Center
Sun 02:19:58 PM 38.5192 -75.4431 201° Southwest 343 395 39,800 250 Climbing Washington Center
Sun 02:20:58 PM 38.4275 -75.4831 199° South 348 400 40,000 102 Climbing Washington Center
Sun 02:21:56 PM 38.3358 -75.5150 195° South 348 400 40,000  Level Washington Center
Sun 02:22:56 PM 38.2378 -75.5547 198° South 348 400 40,000  Level Washington Center
Sun 02:23:57 PM 38.1439 -75.5944 198° South 353 406 40,000  Level Washington Center
Sun 02:24:58 PM 38.0481 -75.6367 199° South 358 412 40,000  Level Washington Center
Sun 02:25:55 PM 37.9583 -75.6839 203° Southwest 358 412 40,000  Level Washington Center
Sun 02:26:57 PM 37.8622 -75.7233 198° South 363 418 40,000  Level Washington Center
Sun 02:27:58 PM 37.7664 -75.7625 198° South 369 425 40,000  Level Washington Center
Sun 02:28:56 PM 37.6703 -75.8044 199° South 369 425 40,000 -153 Level Washington Center
Sun 02:29:56 PM 37.5661 -75.8225 188° South 369 425 39,700 -397 Descending Washington Center
Sun 02:30:57 PM 37.4533 -75.8142 177° South 389 448 39,200 -347 Descending Washington Center
Sun 02:31:57 PM 37.3408 -75.8086 178° South 400 460 39,000 -99 Descending Washington Center
Sun 02:32:58 PM 37.2281 -75.8031 178° South 406 467 39,000 248 Level Washington Center
Sun 02:33:58 PM 37.1175 -75.7950 177° South 406 467 39,500 508 Climbing Washington Center
Sun 02:34:56 PM 37.0069 -75.7869 177° South 406 467 40,000 254 Climbing Washington Center
Sun 02:35:56 PM 36.8986 -75.8075 189° South 393 452 40,000  Level Washington Center
Sun 02:36:57 PM 36.8192 -75.8669 211° Southwest 367 422 40,000  Level Washington Center
Sun 02:37:58 PM 36.7375 -75.9264 210° Southwest 355 409 40,000  Level Washington Center
Sun 02:38:58 PM 36.6414 -75.9931 209° Southwest 355 409 40,000  Level Washington Center
Sun 02:39:56 PM 36.5600 -76.0547 211° Southwest 355 409 40,000  Level Washington Center
Sun 02:40:57 PM 36.4761 -76.1164 211° Southwest 355 409 40,000  Level Washington Center
Sun 02:41:57 PM 36.3944 -76.1750 210° Southwest 350 403 40,000  Level Washington Center
Sun 02:42:56 PM 36.3108 -76.2339 210° Southwest 350 403 40,000  Level Washington Center
Sun 02:43:56 PM 36.2292 -76.2925 210° Southwest 350 403 40,000  Level Washington Center
Sun 02:44:57 PM 36.1453 -76.3508 209° Southwest 350 403 40,000  Level Washington Center
Sun 02:45:57 PM 36.0636 -76.4092 210° Southwest 350 403 40,000  Level Washington Center
Sun 02:46:58 PM 35.9817 -76.4672 210° Southwest 345 397 40,000  Level Washington Center
Sun 02:47:58 PM 35.8978 -76.5253 209° Southwest 345 397 40,000  Level Washington Center
Sun 02:48:56 PM 35.8139 -76.5833 209° Southwest 345 397 40,000  Level Washington Center
Sun 02:49:57 PM 35.7319 -76.6411 210° Southwest 345 397 40,000  Level Washington Center
Sun 02:50:58 PM 35.6503 -76.7014 211° Southwest 345 397 40,000  Level Washington Center
Sun 02:51:56 PM 35.5683 -76.7564 209° Southwest 345 397 40,000  Level Washington Center
Sun 02:52:57 PM 35.4947 -76.8114 211° Southwest 345 397 40,000  Level Washington Center
Sun 02:53:57 PM 35.4106 -76.8714 210° Southwest 345 397 40,000  Level Washington Center
Sun 02:54:56 PM 35.3264 -76.9286 209° Southwest 345 397 40,000  Level Washington Center
Sun 02:55:58 PM 35.2425 -76.9883 210° Southwest 345 397 40,000  Level Washington Center
Sun 02:56:56 PM 35.1603 -77.0453 210° Southwest 345 397 40,000  Level Washington Center
Sun 02:57:56 PM 35.0761 -77.1072 211° Southwest 345 397 40,000  Level Washington Center
Sun 02:58:57 PM 34.9919 -77.1614 208° Southwest 345 397 40,000  Level Washington Center
Sun 02:59:57 PM 34.9119 -77.2156 209° Southwest 345 397 40,000  Level Washington Center
Sun 03:00:57 PM 34.8275 -77.2772 211° Southwest 345 397 40,000  Level Washington Center
Sun 03:01:58 PM 34.7456 -77.3336 209° Southwest 345 397 40,000  Level Washington Center
Sun 03:02:58 PM 34.6633 -77.3900 209° Southwest 340 391 40,000  Level Washington Center
Sun 03:03:58 PM 34.5789 -77.4461 209° Southwest 340 391 40,000  Level Washington Center
Sun 03:04:56 PM 34.4764 -77.4739 193° South 355 409 40,000  Level Washington Center
Sun 03:05:56 PM 34.3736 -77.4967 190° South 368 423 40,000  Level Washington Center
Sun 03:06:57 PM 34.2689 -77.5194 190° South 381 438 40,000  Level Washington Center
Sun 03:07:57 PM 34.1642 -77.5422 190° South 386 444 40,000  Level Washington Center
Sun 03:08:43 PM 34.0597 -77.5636 190° South 388 447 40,000  Level Jacksonville Center
Sun 03:09:43 PM 33.9625 -77.5847 190° South 389 448 40,000  Level Jacksonville Center
Sun 03:10:43 PM 33.8592 -77.6033 189° South 389 448 40,000  Level Jacksonville Center
Sun 03:11:43 PM 33.7539 -77.6297 192° South 389 448 40,000  Level Jacksonville Center
Sun 03:12:43 PM 33.6483 -77.6561 192° South 389 448 40,000  Level Jacksonville Center
Sun 03:13:43 PM 33.5428 -77.6772 189° South 389 448 40,000  Level Jacksonville Center
Sun 03:14:43 PM 33.4394 -77.6958 189° South 389 448 40,000  Level Jacksonville Center
Sun 03:15:43 PM 33.3339 -77.7217 192° South 389 448 40,000  Level Jacksonville Center
Sun 03:16:43 PM 33.2264 -77.7453 190° South 389 448 40,000  Level Jacksonville Center
Sun 03:17:43 PM 33.1208 -77.7664 190° South 389 448 40,000  Level Jacksonville Center
Sun 03:18:43 PM 33.0153 -77.7872 189° South 389 448 40,000  Level Jacksonville Center
Sun 03:19:43 PM 32.9100 -77.8131 192° South 389 448 40,000  Level Jacksonville Center
Sun 03:20:43 PM 32.8022 -77.8339 189° South 389 448 40,000  Level Jacksonville Center
Sun 03:21:43 PM 32.6967 -77.8547 189° South 389 448 40,000  Level Jacksonville Center
Sun 03:22:43 PM 32.5847 -77.8733 188° South 394 453 40,000  Level Jacksonville Center
Sun 03:23:43 PM 32.4717 -77.8672 177° South 399 459 40,000  Level Jacksonville Center
Sun 03:24:43 PM 32.3564 -77.8564 175° South 406 467 40,000  Level Jacksonville Center
Sun 03:25:43 PM 32.2414 -77.8481 176° South 411 473 40,000  Level Jacksonville Center
Sun 03:26:43 PM 32.1244 -77.8469 180° South 417 480 40,000  Level Jacksonville Center
Sun 03:27:43 PM 32.0094 -77.8411 178° South 417 480 40,000  Level Jacksonville Center
Sun 03:28:43 PM 31.8919 -77.8281 175° South 422 486 40,000  Level Jacksonville Center
Sun 03:29:43 PM 31.7769 -77.8244 178° South 422 486 40,000  Level Jacksonville Center
Sun 03:30:43 PM 31.6597 -77.8139 176° South 422 486 40,000  Level Jacksonville Center
Sun 03:31:43 PM 31.5428 -77.8128 180° South 422 486 40,000  Level Jacksonville Center
Sun 03:32:43 PM 31.4256 -77.8047 177° South 427 491 40,000  Level Jacksonville Center
Sun 03:33:43 PM 31.3086 -77.8036 180° South 424 488 40,000  Level Jacksonville Center
Sun 03:34:43 PM 31.1894 -77.7981 178° South 429 494 40,000  Level Jacksonville Center
Sun 03:35:43 PM 31.0722 -77.7875 176° South 424 488 40,000  Level Jacksonville Center
Sun 03:36:43 PM 30.9569 -77.7767 175° South 431 496 40,000  Level Jacksonville Center
Sun 03:37:43 PM 30.8375 -77.7661 176° South 425 489 40,000  Level Jacksonville Center
Sun 03:38:43 PM 30.7206 -77.7606 178° South 420 483 40,000  Level Jacksonville Center
Sun 03:40:42 PM 30.4861 -77.7533 178° South 407 468 40,000  Level Miami Center
Sun 03:41:42 PM 30.3778 -77.7503 179° South 414 476 40,000 -50 Level Miami Center
Sun 03:42:42 PM 30.2631 -77.7517 181° South 413 475 39,900  Descending Miami Center
Sun 03:43:42 PM 30.1442 -77.7433 177° South 413 475 40,000 50 Climbing Miami Center
Sun 03:44:42 PM 30.0275 -77.7353 177° South 419 482 40,000 -50 Level Miami Center
Sun 03:45:42 PM 29.9044 -77.7272 177° South 428 493 39,900 -50 Descending Miami Center
Sun 03:46:42 PM 29.7981 -77.7286 181° South 416 479 39,900 50 Level Miami Center
Sun 03:47:42 PM 29.6731 -77.7158 175° South 424 488 40,000 50 Climbing Miami Center
Sun 03:48:42 PM 29.5606 -77.7125 179° South 418 481 40,000  Level Miami Center
Sun 03:49:42 PM 29.4375 -77.7044 177° South 425 489 40,000 -50 Level Miami Center
Sun 03:50:42 PM 29.3186 -77.6964 177° South 425 489 39,900  Descending Miami Center
Sun 03:51:42 PM 29.2019 -77.6906 178° South 425 489 40,000 50 Climbing Miami Center
Sun 03:52:42 PM 29.0872 -77.6850 178° South 429 494 40,000  Level Miami Center
Sun 03:53:42 PM 28.9725 -77.6794 178° South 417 480 40,000 -50 Level Miami Center
Sun 03:54:42 PM 28.8533 -77.6739 178° South 423 487 39,900  Descending Miami Center
Sun 03:55:42 PM 28.7344 -77.6658 177° South 423 487 40,000  Climbing Miami Center
Sun 03:56:42 PM 28.6219 -77.6628 179° South 417 480 39,900 -400 Descending Miami Center
Sun 03:57:42 PM 28.4989 -77.6547 177° South 424 488 39,200 -650 Descending Miami Center
Sun 03:58:42 PM 28.3881 -77.6492 177° South 418 481 38,600 -650 Descending Miami Center
Sun 03:59:42 PM 28.2756 -77.6436 178° South 418 481 37,900 -650 Descending Miami Center
Sun 04:00:42 PM 28.1606 -77.6383 178° South 418 481 37,300 -650 Descending Miami Center
Sun 04:01:42 PM 28.0439 -77.6328 178° South 418 481 36,600 -650 Descending Miami Center
Sun 04:02:42 PM 27.9353 -77.6272 177° South 418 481 36,000 -650 Descending Miami Center
Sun 04:03:42 PM 27.8161 -77.6194 177° South 410 472 35,300 -650 Descending Miami Center
Sun 04:04:42 PM 27.6972 -77.6139 178° South 417 480 34,700 -600 Descending Miami Center
Sun 04:05:42 PM 27.5950 -77.6064 176° South 422 486 34,100 -350 Descending Miami Center
Sun 04:06:42 PM 27.4800 -77.5961 175° South 422 486 34,000 -50 Descending Miami Center
Sun 04:07:42 PM 27.3611 -77.6000 182° South 422 486 34,000  Level Miami Center
Sun 04:08:42 PM 27.2464 -77.5806 171° South 422 486 34,000 -350 Level Miami Center
Sun 04:09:42 PM 27.1167 -77.5822 181° South 422 486 33,300 -750 Descending Miami Center
Sun 04:10:42 PM 26.9956 -77.5744 177° South 422 486 32,500 -850 Descending Miami Center
Sun 04:11:42 PM 26.8767 -77.5667 177° South 427 491 31,600 -850 Descending Miami Center
Sun 04:12:42 PM 26.7575 -77.5567 176° South 427 491 30,800 -850 Descending Miami Center
Sun 04:13:42 PM 26.6386 -77.5467 176° South 427 491 29,900 -3,400 Descending Miami Center
Sun 04:14:42 PM 26.5194 -77.5392 177° South 427 491 24,000 -850 Descending Miami Center
Sun 04:15:42 PM 26.3983 -77.5314 177° South 433 498 28,200 1,700 Climbing Miami Center
Sun 04:16:42 PM 26.2750 -77.5239 177° South 439 505 27,400 -1,550 Descending Miami Center
Sun 04:17:42 PM 26.1539 -77.5186 178° South 444 511 25,100 -2,600 Descending Miami Center
Sun 04:18:42 PM 26.0433 -77.5108 176° South 429 494 22,200 -2,750 Descending Miami Center
Sun 04:19:42 PM 25.9389 -77.5033 176° South 400 460 19,600 -2,600 Descending Miami Center
Sun 04:20:42 PM 25.8386 -77.4983 177° South 380 437 17,000 -2,550 Descending Miami Center
Sun 04:21:42 PM 25.7444 -77.4933 177° South 363 418 14,500 -2,050 Descending Miami Center
Sun 04:22:42 PM 25.6506 -77.4903 178° South 351 404 12,900 -1,450 Descending Miami Center
Sun 04:23:42 PM 25.5689 -77.5153 195° South 322 371 11,600 -1,300 Descending Miami Center

Login

Don't have an account? Register now (free) for customized features, flight alerts, and more!